Aeroporto :
LOGIN :

Iscrizione | Disclaimer

   EN    FR    IT 

 










Sommario :    VFR   VFR Marginale   IFR   IFR Intensivo   IFR Molto Intensivo
Visibilità : 
Base nubi : 
>= 8 km
>= 3000ft
5 / 8 km
1000 / 3000 ft
1500m / 5 km
500 / 1000 ft
800 / 1500m
200 / 500 ft
< 800m
< 200 ft
Simboli :   Temporali  Nebbia  Neve Forte  Precipitazioni Forti  Vento > 20 kt
SIGMETs :   Varie  Temporali  Ghiacco  Turbolenza  Onda orograficha  Ceneri Vulcaniche






- Altitudine del aeroporto : 49 ft
- Codice IATA : GLZ


EHGR - Gilze-Rijen Airbase

ULTIMO METAR :
  • 151755Z AUTO 11004KT 9999 OVC028 05/03 Q1002 BLU

METARs OBSOLETI :
  • 151725Z AUTO 12004KT 070V140 9999 OVC025 05/03 Q1001 BLU
  • 151655Z AUTO 11005KT 9999 OVC026 06/03 Q1001 BLU
  • 151625Z AUTO 12005KT 100V160 9999 OVC025 06/02 Q1001 BLU
  • 151555Z AUTO 12005KT 090V150 9999 OVC029 06/03 Q1001 BLU
  • 151525Z AUTO 11006KT 080V140 9999 OVC030 06/03 Q1000 BLU
  • 151516Z AUTO 11007KT 080V140 9999 FEW016 OVC032 06/03 Q1000 BLU
  • 151455Z AUTO 10008KT 060V130 9999 FEW016 SCT200 06/03 Q1000 BLU

TAF TAF EHGR
Valido dal 15 a 10 ore il 15 a 22 ore UTC


150949Z 1510/1522 03008KT 9999 BKN015 OVC020
BECMG 1513/1516 11005KT SCT022 BKN100



MetMap, La meteo Aeronautica in un colpo d'occhio ! - Copyright ORBIFLY Dicembre 2007 - Disclaimer

ORBIFLY MET'MAP TEAM :

Programmazione e sviluppo : Alexandra Zaïnal
Concezione e sviluppo : Baudouin d'Aumeries
Co-Programmazione e sviluppo : Marc-Olivier Méhu
Supporto tecnico e logistico : Manuel Goepfert
Aiuto per la traduzione : Arnaldo La Scala

Contatto : metmap@orbifly.com




FONTI E CREDITI :

   NOAA